sensor_id;sensor_type;location;lat;lon;timestamp;pressure;altitude;pressure_sealevel;temperature;humidity
3178;BME280;38141;42.666;23.344;2023-05-24T00:00:10;94482.38;;;13.23;100.00
3178;BME280;38141;42.666;23.344;2023-05-24T00:02:38;94480.94;;;13.49;100.00
3178;BME280;38141;42.666;23.344;2023-05-24T00:05:07;94478.38;;;13.31;100.00
3178;BME280;38141;42.666;23.344;2023-05-24T00:07:34;94479.59;;;13.26;100.00
3178;BME280;38141;42.666;23.344;2023-05-24T00:10:02;94474.38;;;13.05;100.00
3178;BME280;38141;42.666;23.344;2023-05-24T00:12:29;94473.19;;;13.06;100.00
3178;BME280;38141;42.666;23.344;2023-05-24T00:14:57;94436.19;;;12.82;100.00
3178;BME280;38141;42.666;23.344;2023-05-24T00:17:24;94486.81;;;12.99;100.00
3178;BME280;38141;42.666;23.344;2023-05-24T00:19:51;94476.53;;;13.24;100.00
3178;BME280;38141;42.666;23.344;2023-05-24T00:22:18;94458.31;;;12.80;100.00
3178;BME280;38141;42.666;23.344;2023-05-24T00:24:45;94443.41;;;12.55;100.00
3178;BME280;38141;42.666;23.344;2023-05-24T00:27:12;94456.19;;;12.58;100.00
3178;BME280;38141;42.666;23.344;2023-05-24T00:29:39;94474.97;;;12.82;100.00
3178;BME280;38141;42.666;23.344;2023-05-24T00:32:07;94468.41;;;12.80;100.00
3178;BME280;38141;42.666;23.344;2023-05-24T00:34:34;94469.63;;;12.75;100.00
3178;BME280;38141;42.666;23.344;2023-05-24T00:37:01;94475.38;;;12.81;100.00
3178;BME280;38141;42.666;23.344;2023-05-24T00:39:27;94473.34;;;12.92;100.00
3178;BME280;38141;42.666;23.344;2023-05-24T00:41:54;94469.19;;;12.77;100.00
3178;BME280;38141;42.666;23.344;2023-05-24T00:44:21;94465.13;;;12.58;100.00
3178;BME280;38141;42.666;23.344;2023-05-24T00:46:48;94440.81;;;12.40;100.00
3178;BME280;38141;42.666;23.344;2023-05-24T00:49:16;94441.22;;;12.39;100.00
3178;BME280;38141;42.666;23.344;2023-05-24T00:51:45;94471.63;;;12.64;100.00
3178;BME280;38141;42.666;23.344;2023-05-24T00:54:12;94437.78;;;12.35;100.00
3178;BME280;38141;42.666;23.344;2023-05-24T00:56:39;94474.03;;;12.55;100.00
3178;BME280;38141;42.666;23.344;2023-05-24T00:59:07;94483.31;;;12.61;100.00
3178;BME280;38141;42.666;23.344;2023-05-24T01:01:34;94482.91;;;12.59;100.00
3178;BME280;38141;42.666;23.344;2023-05-24T01:04:01;94461.03;;;12.32;100.00
3178;BME280;38141;42.666;23.344;2023-05-24T01:06:31;94472.59;;;12.43;100.00
3178;BME280;38141;42.666;23.344;2023-05-24T01:09:16;94449.81;;;12.27;100.00
3178;BME280;38141;42.666;23.344;2023-05-24T01:11:56;94454.59;;;12.09;100.00
3178;BME280;38141;42.666;23.344;2023-05-24T01:14:28;94475.84;;;12.21;100.00
3178;BME280;38141;42.666;23.344;2023-05-24T01:17:00;94496.78;;;12.13;100.00
3178;BME280;38141;42.666;23.344;2023-05-24T01:19:47;94466.31;;;11.98;100.00
3178;BME280;38141;42.666;23.344;2023-05-24T01:25:59;94487.88;;;12.16;100.00
3178;BME280;38141;42.666;23.344;2023-05-24T01:28:30;94495.22;;;12.19;100.00
3178;BME280;38141;42.666;23.344;2023-05-24T01:30:59;94474.13;;;11.82;100.00
3178;BME280;38141;42.666;23.344;2023-05-24T01:33:27;94501.09;;;12.07;100.00
3178;BME280;38141;42.666;23.344;2023-05-24T01:35:54;94481.03;;;11.90;100.00
3178;BME280;38141;42.666;23.344;2023-05-24T01:38:21;94493.41;;;11.98;100.00
3178;BME280;38141;42.666;23.344;2023-05-24T01:40:51;94494.97;;;11.96;100.00
3178;BME280;38141;42.666;23.344;2023-05-24T01:43:33;94487.28;;;11.84;100.00
3178;BME280;38141;42.666;23.344;2023-05-24T01:46:10;94464.47;;;11.71;100.00
3178;BME280;38141;42.666;23.344;2023-05-24T01:48:46;94474.16;;;11.68;100.00
3178;BME280;38141;42.666;23.344;2023-05-24T01:51:22;94485.41;;;11.67;100.00
3178;BME280;38141;42.666;23.344;2023-05-24T01:53:51;94485.41;;;11.67;100.00
3178;BME280;38141;42.666;23.344;2023-05-24T01:56:19;94470.75;;;11.57;100.00
3178;BME280;38141;42.666;23.344;2023-05-24T01:58:49;94488.88;;;11.71;100.00
3178;BME280;38141;42.666;23.344;2023-05-24T02:01:18;94488.44;;;11.90;100.00
3178;BME280;38141;42.666;23.344;2023-05-24T02:03:45;94480.72;;;11.78;100.00
3178;BME280;38141;42.666;23.344;2023-05-24T02:06:12;94488.88;;;11.64;100.00
3178;BME280;38141;42.666;23.344;2023-05-24T02:08:39;94481.91;;;11.73;100.00
3178;BME280;38141;42.666;23.344;2023-05-24T02:11:06;94474.53;;;11.70;100.00
3178;BME280;38141;42.666;23.344;2023-05-24T02:13:32;94481.09;;;11.83;100.00
3178;BME280;38141;42.666;23.344;2023-05-24T02:16:00;94469.50;;;11.69;100.00
3178;BME280;38141;42.666;23.344;2023-05-24T02:18:29;94456.75;;;11.69;100.00
3178;BME280;38141;42.666;23.344;2023-05-24T02:20:59;94442.47;;;11.54;100.00
3178;BME280;38141;42.666;23.344;2023-05-24T02:23:26;94472.22;;;11.72;100.00
3178;BME280;38141;42.666;23.344;2023-05-24T02:25:53;94472.66;;;11.60;100.00
3178;BME280;38141;42.666;23.344;2023-05-24T02:28:20;94464.16;;;11.54;100.00
3178;BME280;38141;42.666;23.344;2023-05-24T02:30:47;94467.63;;;11.62;100.00
3178;BME280;38141;42.666;23.344;2023-05-24T02:33:15;94458.00;;;11.47;100.00
3178;BME280;38141;42.666;23.344;2023-05-24T02:35:42;94422.81;;;11.43;100.00
3178;BME280;38141;42.666;23.344;2023-05-24T02:38:09;94428.66;;;11.35;100.00
3178;BME280;38141;42.666;23.344;2023-05-24T02:40:35;94469.97;;;11.56;100.00
3178;BME280;38141;42.666;23.344;2023-05-24T02:43:02;94470.75;;;11.57;100.00
3178;BME280;38141;42.666;23.344;2023-05-24T02:45:29;94431.34;;;11.31;100.00
3178;BME280;38141;42.666;23.344;2023-05-24T02:47:56;94469.63;;;11.47;100.00
3178;BME280;38141;42.666;23.344;2023-05-24T02:50:24;94464.50;;;11.74;100.00
3178;BME280;38141;42.666;23.344;2023-05-24T02:52:51;94465.63;;;11.77;100.00
3178;BME280;38141;42.666;23.344;2023-05-24T02:55:17;94474.56;;;11.63;100.00
3178;BME280;38141;42.666;23.344;2023-05-24T02:57:44;94473.00;;;11.76;100.00
3178;BME280;38141;42.666;23.344;2023-05-24T03:00:13;94440.66;;;11.34;100.00
3178;BME280;38141;42.666;23.344;2023-05-24T03:02:40;94474.63;;;11.45;100.00
3178;BME280;38141;42.666;23.344;2023-05-24T03:05:07;94474.63;;;11.45;100.00
3178;BME280;38141;42.666;23.344;2023-05-24T03:07:35;94467.72;;;11.34;100.00
3178;BME280;38141;42.666;23.344;2023-05-24T03:10:02;94481.59;;;11.53;100.00
3178;BME280;38141;42.666;23.344;2023-05-24T03:12:29;94494.00;;;11.40;100.00
3178;BME280;38141;42.666;23.344;2023-05-24T03:14:56;94485.16;;;11.29;100.00
3178;BME280;38141;42.666;23.344;2023-05-24T03:17:23;94484.72;;;11.41;100.00
3178;BME280;38141;42.666;23.344;2023-05-24T03:19:50;94495.06;;;11.64;100.00
3178;BME280;38141;42.666;23.344;2023-05-24T03:22:17;94494.31;;;11.64;100.00
3178;BME280;38141;42.666;23.344;2023-05-24T03:24:45;94449.13;;;11.39;100.00
3178;BME280;38141;42.666;23.344;2023-05-24T03:27:13;94464.97;;;11.48;100.00
3178;BME280;38141;42.666;23.344;2023-05-24T03:29:39;94494.31;;;11.64;100.00
3178;BME280;38141;42.666;23.344;2023-05-24T03:32:06;94507.81;;;11.78;100.00
3178;BME280;38141;42.666;23.344;2023-05-24T03:34:33;94501.66;;;11.74;100.00
3178;BME280;38141;42.666;23.344;2023-05-24T03:37:00;94501.66;;;11.74;100.00
3178;BME280;38141;42.666;23.344;2023-05-24T03:39:27;94499.69;;;11.78;100.00
3178;BME280;38141;42.666;23.344;2023-05-24T03:41:55;94474.13;;;11.82;100.00
3178;BME280;38141;42.666;23.344;2023-05-24T03:44:22;94505.78;;;12.03;100.00
3178;BME280;38141;42.666;23.344;2023-05-24T03:46:49;94504.69;;;11.90;100.00
3178;BME280;38141;42.666;23.344;2023-05-24T03:49:15;94505.03;;;11.99;100.00
3178;BME280;38141;42.666;23.344;2023-05-24T03:51:42;94484.50;;;11.98;100.00
3178;BME280;38141;42.666;23.344;2023-05-24T03:54:09;94502.56;;;12.19;100.00
3178;BME280;38141;42.666;23.344;2023-05-24T03:56:36;94425.78;;;11.74;100.00
3178;BME280;38141;42.666;23.344;2023-05-24T03:59:04;94508.66;;;12.37;100.00
3178;BME280;38141;42.666;23.344;2023-05-24T04:04:16;94470.38;;;12.24;100.00
3178;BME280;38141;42.666;23.344;2023-05-24T04:06:43;94504.59;;;12.66;100.00
3178;BME280;38141;42.666;23.344;2023-05-24T04:09:10;94506.81;;;12.78;100.00
3178;BME280;38141;42.666;23.344;2023-05-24T04:11:37;94508.72;;;12.81;100.00
3178;BME280;38141;42.666;23.344;2023-05-24T04:14:05;94509.38;;;12.96;100.00
3178;BME280;38141;42.666;23.344;2023-05-24T04:16:32;94503.19;;;12.92;100.00
3178;BME280;38141;42.666;23.344;2023-05-24T04:18:59;94529.78;;;13.15;100.00
3178;BME280;38141;42.666;23.344;2023-05-24T04:21:28;94499.88;;;13.18;100.00
3178;BME280;38141;42.666;23.344;2023-05-24T04:23:56;94512.72;;;13.52;100.00
3178;BME280;38141;42.666;23.344;2023-05-24T04:26:24;94519.50;;;13.70;100.00
3178;BME280;38141;42.666;23.344;2023-05-24T04:28:51;94522.13;;;13.77;100.00
3178;BME280;38141;42.666;23.344;2023-05-24T04:31:20;94426.03;;;13.61;100.00
3178;BME280;38141;42.666;23.344;2023-05-24T04:33:47;94461.69;;;13.97;100.00
3178;BME280;38141;42.666;23.344;2023-05-24T04:36:14;94519.19;;;14.56;100.00
3178;BME280;38141;42.666;23.344;2023-05-24T04:38:42;94500.75;;;14.67;100.00
3178;BME280;38141;42.666;23.344;2023-05-24T04:41:10;94510.38;;;15.18;100.00
3178;BME280;38141;42.666;23.344;2023-05-24T04:43:38;94523.44;;;15.73;100.00
3178;BME280;38141;42.666;23.344;2023-05-24T04:46:06;94527.53;;;16.57;100.00
3178;BME280;38141;42.666;23.344;2023-05-24T04:48:34;94486.66;;;17.18;100.00
3178;BME280;38141;42.666;23.344;2023-05-24T04:51:01;94501.09;;;17.80;100.00
3178;BME280;38141;42.666;23.344;2023-05-24T04:53:28;94513.41;;;18.67;90.10
3178;BME280;38141;42.666;23.344;2023-05-24T04:56:03;94545.50;;;19.30;83.11
3178;BME280;38141;42.666;23.344;2023-05-24T04:58:30;94548.44;;;20.17;76.01
3178;BME280;38141;42.666;23.344;2023-05-24T05:00:57;94536.09;;;20.43;70.13
3178;BME280;38141;42.666;23.344;2023-05-24T05:03:24;94538.50;;;21.03;65.28
3178;BME280;38141;42.666;23.344;2023-05-24T05:05:52;94456.81;;;21.58;60.36
3178;BME280;38141;42.666;23.344;2023-05-24T05:08:22;94481.00;;;22.69;55.51
3178;BME280;38141;42.666;23.344;2023-05-24T05:10:49;94509.13;;;23.71;53.11
3178;BME280;38141;42.666;23.344;2023-05-24T05:13:16;94469.16;;;23.81;50.30
3178;BME280;38141;42.666;23.344;2023-05-24T05:15:43;94543.06;;;24.49;49.71
3178;BME280;38141;42.666;23.344;2023-05-24T05:18:10;94555.63;;;24.35;50.39
3178;BME280;38141;42.666;23.344;2023-05-24T05:20:37;94521.06;;;25.33;47.28
3178;BME280;38141;42.666;23.344;2023-05-24T05:23:05;94552.75;;;25.67;46.91
3178;BME280;38141;42.666;23.344;2023-05-24T05:25:32;94529.47;;;26.20;45.22
3178;BME280;38141;42.666;23.344;2023-05-24T05:27:58;94556.53;;;26.71;43.43
3178;BME280;38141;42.666;23.344;2023-05-24T05:30:25;94525.47;;;26.98;43.22
3178;BME280;38141;42.666;23.344;2023-05-24T05:32:52;94553.09;;;27.13;42.63
3178;BME280;38141;42.666;23.344;2023-05-24T05:35:19;94564.03;;;28.66;40.07
3178;BME280;38141;42.666;23.344;2023-05-24T05:37:46;94561.84;;;27.68;40.97
3178;BME280;38141;42.666;23.344;2023-05-24T05:40:14;94561.41;;;30.13;37.09
3178;BME280;38141;42.666;23.344;2023-05-24T05:42:43;94563.34;;;29.43;37.82
3178;BME280;38141;42.666;23.344;2023-05-24T05:45:11;94527.09;;;30.29;37.61
3178;BME280;38141;42.666;23.344;2023-05-24T05:47:38;94550.06;;;30.98;35.77
3178;BME280;38141;42.666;23.344;2023-05-24T05:50:06;94538.97;;;30.40;35.19
3178;BME280;38141;42.666;23.344;2023-05-24T05:52:33;94556.44;;;31.58;33.85
3178;BME280;38141;42.666;23.344;2023-05-24T05:54:59;94566.31;;;32.94;33.04
3178;BME280;38141;42.666;23.344;2023-05-24T05:57:28;94559.78;;;31.81;33.48
3178;BME280;38141;42.666;23.344;2023-05-24T05:59:54;94561.84;;;31.51;33.83
3178;BME280;38141;42.666;23.344;2023-05-24T06:02:21;94536.28;;;31.35;34.44
3178;BME280;38141;42.666;23.344;2023-05-24T06:04:48;94553.50;;;31.45;33.36
3178;BME280;38141;42.666;23.344;2023-05-24T06:07:16;94547.53;;;32.08;33.06
3178;BME280;38141;42.666;23.344;2023-05-24T06:09:43;94548.59;;;32.86;32.60
3178;BME280;38141;42.666;23.344;2023-05-24T06:12:09;94567.75;;;33.64;31.28
3178;BME280;38141;42.666;23.344;2023-05-24T06:14:37;94570.72;;;34.51;30.15
3178;BME280;38141;42.666;23.344;2023-05-24T06:17:07;94565.31;;;33.10;31.41
3178;BME280;38141;42.666;23.344;2023-05-24T06:19:35;94567.72;;;33.96;30.84
3178;BME280;38141;42.666;23.344;2023-05-24T06:22:03;94540.06;;;34.00;30.41
3178;BME280;38141;42.666;23.344;2023-05-24T06:24:30;94581.50;;;34.86;30.23
3178;BME280;38141;42.666;23.344;2023-05-24T06:26:59;94571.38;;;35.04;28.68
3178;BME280;38141;42.666;23.344;2023-05-24T06:29:26;94570.63;;;34.30;29.21
3178;BME280;38141;42.666;23.344;2023-05-24T06:31:55;94526.16;;;35.02;28.95
3178;BME280;38141;42.666;23.344;2023-05-24T06:34:22;94538.34;;;36.87;27.56
3178;BME280;38141;42.666;23.344;2023-05-24T06:36:49;94568.25;;;36.90;26.79
3178;BME280;38141;42.666;23.344;2023-05-24T06:39:17;94567.63;;;36.69;27.15
3178;BME280;38141;42.666;23.344;2023-05-24T06:41:44;94527.41;;;36.76;26.71
3178;BME280;38141;42.666;23.344;2023-05-24T06:44:22;94555.25;;;36.44;28.09
3178;BME280;38141;42.666;23.344;2023-05-24T06:46:56;94562.91;;;36.64;27.40
3178;BME280;38141;42.666;23.344;2023-05-24T06:49:23;94553.72;;;35.79;28.06
3178;BME280;38141;42.666;23.344;2023-05-24T06:51:50;94549.06;;;35.19;29.49
3178;BME280;38141;42.666;23.344;2023-05-24T06:54:19;94557.41;;;35.53;28.34
3178;BME280;38141;42.666;23.344;2023-05-24T06:56:47;94538.56;;;35.89;27.79
3178;BME280;38141;42.666;23.344;2023-05-24T06:59:14;94527.44;;;34.20;29.73
3178;BME280;38141;42.666;23.344;2023-05-24T07:01:46;94535.16;;;36.11;28.40
3178;BME280;38141;42.666;23.344;2023-05-24T07:04:17;94516.16;;;36.40;27.32
3178;BME280;38141;42.666;23.344;2023-05-24T07:06:44;94534.84;;;35.66;28.52
3178;BME280;38141;42.666;23.344;2023-05-24T07:09:11;94536.41;;;34.18;30.91
3178;BME280;38141;42.666;23.344;2023-05-24T07:11:39;94550.97;;;34.43;29.94
3178;BME280;38141;42.666;23.344;2023-05-24T07:14:06;94518.19;;;32.90;32.24
3178;BME280;38141;42.666;23.344;2023-05-24T07:16:33;94560.16;;;33.46;32.40
3178;BME280;38141;42.666;23.344;2023-05-24T07:19:00;94557.28;;;33.20;31.95
3178;BME280;38141;42.666;23.344;2023-05-24T07:21:28;94553.00;;;31.71;33.96
3178;BME280;38141;42.666;23.344;2023-05-24T07:23:56;94534.72;;;29.21;37.72
3178;BME280;38141;42.666;23.344;2023-05-24T07:26:22;94562.31;;;29.07;38.01
3178;BME280;38141;42.666;23.344;2023-05-24T07:28:49;94554.13;;;29.87;36.79
3178;BME280;38141;42.666;23.344;2023-05-24T07:31:16;94552.72;;;30.27;36.55
3178;BME280;38141;42.666;23.344;2023-05-24T07:33:43;94558.25;;;28.92;38.04
3178;BME280;38141;42.666;23.344;2023-05-24T07:36:09;94556.13;;;28.48;40.22
3178;BME280;38141;42.666;23.344;2023-05-24T07:38:38;94564.44;;;28.37;40.21
3178;BME280;38141;42.666;23.344;2023-05-24T07:41:05;94558.78;;;29.40;38.73
3178;BME280;38141;42.666;23.344;2023-05-24T07:43:32;94566.63;;;29.25;37.99
3178;BME280;38141;42.666;23.344;2023-05-24T07:45:59;94561.03;;;28.86;37.53
3178;BME280;38141;42.666;23.344;2023-05-24T07:48:26;94550.91;;;29.05;38.14
3178;BME280;38141;42.666;23.344;2023-05-24T07:50:52;94537.59;;;28.28;39.95
3178;BME280;38141;42.666;23.344;2023-05-24T07:53:19;94549.28;;;28.38;40.23
3178;BME280;38141;42.666;23.344;2023-05-24T07:55:48;94553.66;;;27.96;40.58
3178;BME280;38141;42.666;23.344;2023-05-24T07:58:16;94542.56;;;28.07;40.74
3178;BME280;38141;42.666;23.344;2023-05-24T08:00:42;94548.03;;;27.42;39.87
3178;BME280;38141;42.666;23.344;2023-05-24T08:03:09;94547.28;;;27.90;39.86
3178;BME280;38141;42.666;23.344;2023-05-24T08:05:39;94546.34;;;28.04;39.53
3178;BME280;38141;42.666;23.344;2023-05-24T08:08:06;94551.84;;;28.47;38.59
3178;BME280;38141;42.666;23.344;2023-05-24T08:10:33;94547.81;;;28.64;37.98
3178;BME280;38141;42.666;23.344;2023-05-24T08:13:02;94545.50;;;28.57;37.22
3178;BME280;38141;42.666;23.344;2023-05-24T08:15:30;94548.56;;;27.89;37.94
3178;BME280;38141;42.666;23.344;2023-05-24T08:17:56;94548.28;;;27.44;37.45
3178;BME280;38141;42.666;23.344;2023-05-24T08:20:23;94547.81;;;28.64;36.05
3178;BME280;38141;42.666;23.344;2023-05-24T08:22:50;94541.50;;;29.53;35.37
3178;BME280;38141;42.666;23.344;2023-05-24T08:25:17;94540.44;;;29.95;34.71
3178;BME280;38141;42.666;23.344;2023-05-24T08:27:44;94538.50;;;29.40;36.47
3178;BME280;38141;42.666;23.344;2023-05-24T08:30:13;94542.81;;;29.24;35.17
3178;BME280;38141;42.666;23.344;2023-05-24T08:32:39;94538.75;;;29.42;35.35
3178;BME280;38141;42.666;23.344;2023-05-24T08:35:06;94533.44;;;29.27;34.70
3178;BME280;38141;42.666;23.344;2023-05-24T08:37:33;94546.88;;;29.01;33.24
3178;BME280;38141;42.666;23.344;2023-05-24T08:40:00;94548.38;;;28.74;34.14
3178;BME280;38141;42.666;23.344;2023-05-24T08:42:29;94540.50;;;28.72;35.33
3178;BME280;38141;42.666;23.344;2023-05-24T08:45:00;94534.06;;;30.00;33.50
3178;BME280;38141;42.666;23.344;2023-05-24T08:47:30;94540.53;;;30.30;32.57
3178;BME280;38141;42.666;23.344;2023-05-24T08:49:58;94530.00;;;30.07;32.81
3178;BME280;38141;42.666;23.344;2023-05-24T08:52:26;94540.06;;;31.14;32.13
3178;BME280;38141;42.666;23.344;2023-05-24T08:54:54;94533.44;;;31.95;30.99
3178;BME280;38141;42.666;23.344;2023-05-24T08:57:21;94539.13;;;30.59;32.42
3178;BME280;38141;42.666;23.344;2023-05-24T08:59:49;94529.97;;;31.05;32.01
3178;BME280;38141;42.666;23.344;2023-05-24T09:02:17;94541.47;;;32.85;29.03
3178;BME280;38141;42.666;23.344;2023-05-24T09:04:48;94535.94;;;33.75;27.13
3178;BME280;38141;42.666;23.344;2023-05-24T09:07:17;94538.22;;;33.89;27.26
3178;BME280;38141;42.666;23.344;2023-05-24T09:09:47;94541.97;;;33.66;27.41
3178;BME280;38141;42.666;23.344;2023-05-24T09:12:17;94528.22;;;33.49;27.59
3178;BME280;38141;42.666;23.344;2023-05-24T09:14:46;94540.44;;;33.65;27.58
3178;BME280;38141;42.666;23.344;2023-05-24T09:17:13;94539.25;;;34.99;26.57
3178;BME280;38141;42.666;23.344;2023-05-24T09:19:43;94534.41;;;35.62;25.31
3178;BME280;38141;42.666;23.344;2023-05-24T09:22:13;94529.44;;;37.27;23.31
3178;BME280;38141;42.666;23.344;2023-05-24T09:24:41;94530.75;;;38.09;23.41
3178;BME280;38141;42.666;23.344;2023-05-24T09:27:08;94527.34;;;37.20;24.37
3178;BME280;38141;42.666;23.344;2023-05-24T09:29:35;94521.06;;;36.98;23.98
3178;BME280;38141;42.666;23.344;2023-05-24T09:32:02;94531.31;;;37.39;23.34
3178;BME280;38141;42.666;23.344;2023-05-24T09:34:37;94535.09;;;36.76;23.04
3178;BME280;38141;42.666;23.344;2023-05-24T09:37:04;94529.91;;;36.95;23.45
3178;BME280;38141;42.666;23.344;2023-05-24T09:39:33;94539.72;;;36.15;22.37
3178;BME280;38141;42.666;23.344;2023-05-24T09:42:02;94514.41;;;35.24;21.85
3178;BME280;38141;42.666;23.344;2023-05-24T09:44:28;94533.63;;;35.33;22.75
3178;BME280;38141;42.666;23.344;2023-05-24T09:47:00;94535.88;;;35.55;23.00
3178;BME280;38141;42.666;23.344;2023-05-24T09:49:28;94529.34;;;38.56;21.14
3178;BME280;38141;42.666;23.344;2023-05-24T09:51:55;94526.72;;;39.23;20.98
3178;BME280;38141;42.666;23.344;2023-05-24T09:54:23;94530.16;;;41.16;19.26
3178;BME280;38141;42.666;23.344;2023-05-24T09:56:51;94518.09;;;41.25;20.10
3178;BME280;38141;42.666;23.344;2023-05-24T09:59:18;94522.38;;;40.72;20.60
3178;BME280;38141;42.666;23.344;2023-05-24T10:01:45;94523.31;;;36.92;22.88
3178;BME280;38141;42.666;23.344;2023-05-24T10:04:18;94509.66;;;35.19;25.39
3178;BME280;38141;42.666;23.344;2023-05-24T10:06:45;94495.78;;;33.93;26.37
3178;BME280;38141;42.666;23.344;2023-05-24T10:09:13;94499.91;;;31.90;28.65
3178;BME280;38141;42.666;23.344;2023-05-24T10:11:40;94495.50;;;32.37;27.62
3178;BME280;38141;42.666;23.344;2023-05-24T10:14:09;94510.22;;;33.71;26.18
3178;BME280;38141;42.666;23.344;2023-05-24T10:16:36;94499.59;;;32.74;27.37
3178;BME280;38141;42.666;23.344;2023-05-24T10:19:03;94503.66;;;31.44;29.57
3178;BME280;38141;42.666;23.344;2023-05-24T10:21:31;94487.38;;;31.48;28.94
3178;BME280;38141;42.666;23.344;2023-05-24T10:24:01;94500.97;;;32.11;27.66
3178;BME280;38141;42.666;23.344;2023-05-24T10:26:31;94500.53;;;31.53;26.49
3178;BME280;38141;42.666;23.344;2023-05-24T10:29:03;94498.06;;;31.73;26.84
3178;BME280;38141;42.666;23.344;2023-05-24T10:31:35;94498.84;;;31.20;27.28
3178;BME280;38141;42.666;23.344;2023-05-24T10:34:05;94503.13;;;31.21;27.63
3178;BME280;38141;42.666;23.344;2023-05-24T10:36:32;94493.66;;;30.18;29.21
3178;BME280;38141;42.666;23.344;2023-05-24T10:38:59;94474.91;;;30.59;28.03
3178;BME280;38141;42.666;23.344;2023-05-24T10:41:28;94457.63;;;30.14;29.25
3178;BME280;38141;42.666;23.344;2023-05-24T10:43:56;94488.78;;;30.29;29.28
3178;BME280;38141;42.666;23.344;2023-05-24T10:46:23;94465.16;;;30.30;27.70
3178;BME280;38141;42.666;23.344;2023-05-24T10:49:00;94470.81;;;30.66;28.15
3178;BME280;38141;42.666;23.344;2023-05-24T10:51:32;94459.38;;;30.17;28.84
3178;BME280;38141;42.666;23.344;2023-05-24T10:54:17;94477.97;;;30.56;28.36
3178;BME280;38141;42.666;23.344;2023-05-24T10:56:45;94478.31;;;29.89;29.22
3178;BME280;38141;42.666;23.344;2023-05-24T10:59:32;94467.41;;;29.91;29.52
3178;BME280;38141;42.666;23.344;2023-05-24T11:02:03;94467.41;;;30.37;28.35
3178;BME280;38141;42.666;23.344;2023-05-24T11:04:37;94466.03;;;30.55;28.60
3178;BME280;38141;42.666;23.344;2023-05-24T11:07:08;94465.25;;;29.45;29.21
3178;BME280;38141;42.666;23.344;2023-05-24T11:09:36;94470.13;;;29.05;29.54
3178;BME280;38141;42.666;23.344;2023-05-24T11:12:13;94461.50;;;28.81;30.69
3178;BME280;38141;42.666;23.344;2023-05-24T11:14:46;94462.78;;;28.97;30.82
3178;BME280;38141;42.666;23.344;2023-05-24T11:17:13;94451.56;;;29.47;29.92
3178;BME280;38141;42.666;23.344;2023-05-24T11:19:46;94448.63;;;29.91;28.98
3178;BME280;38141;42.666;23.344;2023-05-24T11:22:15;94449.19;;;29.73;30.30
3178;BME280;38141;42.666;23.344;2023-05-24T11:24:42;94453.66;;;29.02;30.66
3178;BME280;38141;42.666;23.344;2023-05-24T11:27:10;94444.69;;;29.53;30.43
3178;BME280;38141;42.666;23.344;2023-05-24T11:29:42;94434.56;;;29.45;30.27
3178;BME280;38141;42.666;23.344;2023-05-24T11:32:09;94442.75;;;29.09;30.29
3178;BME280;38141;42.666;23.344;2023-05-24T11:34:39;94447.81;;;29.33;30.78
3178;BME280;38141;42.666;23.344;2023-05-24T11:37:11;94446.59;;;28.84;30.01
3178;BME280;38141;42.666;23.344;2023-05-24T11:39:38;94441.75;;;28.90;30.26
3178;BME280;38141;42.666;23.344;2023-05-24T11:42:06;94437.44;;;28.50;30.71
3178;BME280;38141;42.666;23.344;2023-05-24T11:44:34;94446.75;;;28.14;31.54
3178;BME280;38141;42.666;23.344;2023-05-24T11:47:04;94439.97;;;28.54;32.24
3178;BME280;38141;42.666;23.344;2023-05-24T11:49:31;94431.66;;;28.70;31.41
3178;BME280;38141;42.666;23.344;2023-05-24T11:51:58;94432.63;;;28.34;32.36
3178;BME280;38141;42.666;23.344;2023-05-24T11:54:27;94418.72;;;28.34;32.46
3178;BME280;38141;42.666;23.344;2023-05-24T11:56:56;94421.00;;;28.30;32.68
3178;BME280;38141;42.666;23.344;2023-05-24T11:59:24;94420.50;;;28.65;32.66
3178;BME280;38141;42.666;23.344;2023-05-24T12:01:56;94412.88;;;29.04;32.32
3178;BME280;38141;42.666;23.344;2023-05-24T12:04:24;94412.91;;;28.60;30.96
3178;BME280;38141;42.666;23.344;2023-05-24T12:06:52;94415.34;;;28.08;32.73
3178;BME280;38141;42.666;23.344;2023-05-24T12:09:19;94418.66;;;28.06;31.50
3178;BME280;38141;42.666;23.344;2023-05-24T12:11:49;94419.19;;;28.27;32.32
3178;BME280;38141;42.666;23.344;2023-05-24T12:14:17;94419.97;;;28.39;32.21
3178;BME280;38141;42.666;23.344;2023-05-24T12:16:45;94407.53;;;28.06;32.34
3178;BME280;38141;42.666;23.344;2023-05-24T12:19:15;94405.88;;;27.61;33.19
3178;BME280;38141;42.666;23.344;2023-05-24T12:21:42;94417.41;;;27.42;33.85
3178;BME280;38141;42.666;23.344;2023-05-24T12:24:11;94397.44;;;27.38;34.06
3178;BME280;38141;42.666;23.344;2023-05-24T12:26:41;94396.88;;;27.94;32.73
3178;BME280;38141;42.666;23.344;2023-05-24T12:29:10;94404.25;;;28.13;33.42
3178;BME280;38141;42.666;23.344;2023-05-24T12:31:39;94400.16;;;27.98;32.56
3178;BME280;38141;42.666;23.344;2023-05-24T12:34:07;94389.50;;;27.74;34.10
3178;BME280;38141;42.666;23.344;2023-05-24T12:36:37;94372.13;;;28.07;33.00
3178;BME280;38141;42.666;23.344;2023-05-24T12:39:15;94386.56;;;28.55;32.59
3178;BME280;38141;42.666;23.344;2023-05-24T12:41:43;94382.50;;;28.62;31.36
3178;BME280;38141;42.666;23.344;2023-05-24T12:44:11;94379.50;;;28.21;32.48
3178;BME280;38141;42.666;23.344;2023-05-24T12:46:38;94381.66;;;27.72;32.47
3178;BME280;38141;42.666;23.344;2023-05-24T12:49:05;94384.47;;;28.00;33.50
3178;BME280;38141;42.666;23.344;2023-05-24T12:51:32;94386.81;;;28.18;32.99
3178;BME280;38141;42.666;23.344;2023-05-24T12:53:58;94382.69;;;27.75;32.82
3178;BME280;38141;42.666;23.344;2023-05-24T12:56:29;94380.38;;;27.73;33.36
3178;BME280;38141;42.666;23.344;2023-05-24T12:58:55;94388.78;;;27.96;33.42
3178;BME280;38141;42.666;23.344;2023-05-24T13:01:24;94378.78;;;27.50;33.28
3178;BME280;38141;42.666;23.344;2023-05-24T13:03:51;94366.75;;;27.75;32.59
3178;BME280;38141;42.666;23.344;2023-05-24T13:06:18;94371.84;;;27.94;32.07
3178;BME280;38141;42.666;23.344;2023-05-24T13:08:44;94370.97;;;27.54;31.82